sensor_id;sensor_type;location;lat;lon;timestamp;P1;durP1;ratioP1;P2;durP2;ratioP2
47483;SDS011;54076;50.322;18.650;2023-03-01T00:00:15;115.80;;;39.30;;
47483;SDS011;54076;50.322;18.650;2023-03-01T00:05:16;125.10;;;41.30;;
47483;SDS011;54076;50.322;18.650;2023-03-01T00:10:17;117.00;;;38.90;;
47483;SDS011;54076;50.322;18.650;2023-03-01T00:15:18;126.30;;;40.80;;
47483;SDS011;54076;50.322;18.650;2023-03-01T00:20:20;104.60;;;38.60;;
47483;SDS011;54076;50.322;18.650;2023-03-01T00:25:21;113.20;;;38.30;;
47483;SDS011;54076;50.322;18.650;2023-03-01T00:30:22;103.10;;;37.50;;
47483;SDS011;54076;50.322;18.650;2023-03-01T00:35:23;120.80;;;39.70;;
47483;SDS011;54076;50.322;18.650;2023-03-01T00:40:25;104.70;;;37.00;;
47483;SDS011;54076;50.322;18.650;2023-03-01T00:45:30;113.10;;;38.70;;
47483;SDS011;54076;50.322;18.650;2023-03-01T00:50:31;115.30;;;38.50;;
47483;SDS011;54076;50.322;18.650;2023-03-01T00:55:33;114.90;;;38.60;;
47483;SDS011;54076;50.322;18.650;2023-03-01T01:00:34;93.30;;;33.90;;
47483;SDS011;54076;50.322;18.650;2023-03-01T01:05:35;108.60;;;36.50;;
47483;SDS011;54076;50.322;18.650;2023-03-01T01:10:36;98.00;;;34.50;;
47483;SDS011;54076;50.322;18.650;2023-03-01T01:15:38;92.20;;;32.60;;
47483;SDS011;54076;50.322;18.650;2023-03-01T01:20:39;106.00;;;36.80;;
47483;SDS011;54076;50.322;18.650;2023-03-01T01:25:40;96.00;;;34.20;;
47483;SDS011;54076;50.322;18.650;2023-03-01T01:30:42;122.30;;;39.50;;
47483;SDS011;54076;50.322;18.650;2023-03-01T01:35:45;117.50;;;39.40;;
47483;SDS011;54076;50.322;18.650;2023-03-01T01:40:46;108.00;;;37.20;;
47483;SDS011;54076;50.322;18.650;2023-03-01T01:45:49;105.90;;;37.00;;
47483;SDS011;54076;50.322;18.650;2023-03-01T01:50:59;113.10;;;37.30;;
47483;SDS011;54076;50.322;18.650;2023-03-01T01:56:01;96.40;;;35.70;;
47483;SDS011;54076;50.322;18.650;2023-03-01T02:01:04;96.70;;;34.40;;
47483;SDS011;54076;50.322;18.650;2023-03-01T02:11:20;93.00;;;32.80;;
47483;SDS011;54076;50.322;18.650;2023-03-01T02:16:21;95.90;;;35.80;;
47483;SDS011;54076;50.322;18.650;2023-03-01T02:21:39;103.60;;;33.90;;
47483;SDS011;54076;50.322;18.650;2023-03-01T02:26:50;86.00;;;31.50;;
47483;SDS011;54076;50.322;18.650;2023-03-01T02:31:56;105.70;;;34.20;;
47483;SDS011;54076;50.322;18.650;2023-03-01T02:37:04;96.90;;;35.40;;
47483;SDS011;54076;50.322;18.650;2023-03-01T02:42:14;103.00;;;32.70;;
47483;SDS011;54076;50.322;18.650;2023-03-01T02:47:19;88.10;;;32.50;;
47483;SDS011;54076;50.322;18.650;2023-03-01T02:58:16;75.70;;;29.60;;
47483;SDS011;54076;50.322;18.650;2023-03-01T03:03:17;80.00;;;31.60;;
47483;SDS011;54076;50.322;18.650;2023-03-01T03:08:21;81.40;;;30.00;;
47483;SDS011;54076;50.322;18.650;2023-03-01T03:13:24;83.70;;;30.20;;
47483;SDS011;54076;50.322;18.650;2023-03-01T03:18:29;68.50;;;26.30;;
47483;SDS011;54076;50.322;18.650;2023-03-01T03:23:30;67.30;;;24.30;;
47483;SDS011;54076;50.322;18.650;2023-03-01T03:28:33;58.60;;;25.20;;
47483;SDS011;54076;50.322;18.650;2023-03-01T03:33:35;66.60;;;25.90;;
47483;SDS011;54076;50.322;18.650;2023-03-01T03:38:36;71.10;;;26.70;;
47483;SDS011;54076;50.322;18.650;2023-03-01T03:43:40;75.70;;;27.20;;
47483;SDS011;54076;50.322;18.650;2023-03-01T03:48:44;77.30;;;29.20;;
47483;SDS011;54076;50.322;18.650;2023-03-01T03:53:46;78.70;;;29.40;;
47483;SDS011;54076;50.322;18.650;2023-03-01T03:58:47;71.80;;;27.90;;
47483;SDS011;54076;50.322;18.650;2023-03-01T04:03:48;76.00;;;26.60;;
47483;SDS011;54076;50.322;18.650;2023-03-01T04:08:49;77.20;;;29.40;;
47483;SDS011;54076;50.322;18.650;2023-03-01T04:13:53;58.80;;;23.50;;
47483;SDS011;54076;50.322;18.650;2023-03-01T04:18:55;62.80;;;25.30;;
47483;SDS011;54076;50.322;18.650;2023-03-01T04:23:57;56.00;;;21.50;;
47483;SDS011;54076;50.322;18.650;2023-03-01T04:28:58;59.40;;;22.80;;
47483;SDS011;54076;50.322;18.650;2023-03-01T04:33:59;58.30;;;22.40;;
47483;SDS011;54076;50.322;18.650;2023-03-01T04:39:00;51.40;;;22.20;;
47483;SDS011;54076;50.322;18.650;2023-03-01T04:44:12;53.20;;;21.10;;
47483;SDS011;54076;50.322;18.650;2023-03-01T04:49:14;71.40;;;26.90;;
47483;SDS011;54076;50.322;18.650;2023-03-01T04:54:16;77.10;;;28.70;;
47483;SDS011;54076;50.322;18.650;2023-03-01T04:59:17;93.40;;;31.80;;
47483;SDS011;54076;50.322;18.650;2023-03-01T05:04:18;80.90;;;28.40;;
47483;SDS011;54076;50.322;18.650;2023-03-01T05:09:20;74.60;;;27.60;;
47483;SDS011;54076;50.322;18.650;2023-03-01T05:14:21;73.90;;;29.50;;
47483;SDS011;54076;50.322;18.650;2023-03-01T05:19:22;65.00;;;27.40;;
47483;SDS011;54076;50.322;18.650;2023-03-01T05:24:24;71.10;;;26.10;;
47483;SDS011;54076;50.322;18.650;2023-03-01T05:29:26;75.70;;;27.80;;
47483;SDS011;54076;50.322;18.650;2023-03-01T05:34:31;69.30;;;26.70;;
47483;SDS011;54076;50.322;18.650;2023-03-01T05:39:34;66.70;;;27.30;;
47483;SDS011;54076;50.322;18.650;2023-03-01T05:44:35;62.70;;;24.70;;
47483;SDS011;54076;50.322;18.650;2023-03-01T05:49:36;69.10;;;27.50;;
47483;SDS011;54076;50.322;18.650;2023-03-01T05:54:37;65.70;;;27.10;;
47483;SDS011;54076;50.322;18.650;2023-03-01T05:59:39;62.80;;;25.70;;
47483;SDS011;54076;50.322;18.650;2023-03-01T06:04:40;64.20;;;25.20;;
47483;SDS011;54076;50.322;18.650;2023-03-01T06:09:41;70.10;;;26.50;;
47483;SDS011;54076;50.322;18.650;2023-03-01T06:14:43;63.30;;;26.10;;
47483;SDS011;54076;50.322;18.650;2023-03-01T06:19:46;64.00;;;25.00;;
47483;SDS011;54076;50.322;18.650;2023-03-01T06:24:47;61.50;;;24.70;;
47483;SDS011;54076;50.322;18.650;2023-03-01T06:29:49;66.30;;;25.20;;
47483;SDS011;54076;50.322;18.650;2023-03-01T06:34:50;61.90;;;23.80;;
47483;SDS011;54076;50.322;18.650;2023-03-01T06:39:51;64.60;;;27.30;;
47483;SDS011;54076;50.322;18.650;2023-03-01T06:44:52;67.60;;;25.60;;
47483;SDS011;54076;50.322;18.650;2023-03-01T06:49:53;67.60;;;26.20;;
47483;SDS011;54076;50.322;18.650;2023-03-01T06:54:54;63.80;;;24.10;;
47483;SDS011;54076;50.322;18.650;2023-03-01T06:59:56;61.90;;;24.80;;
47483;SDS011;54076;50.322;18.650;2023-03-01T07:04:57;57.60;;;23.30;;
47483;SDS011;54076;50.322;18.650;2023-03-01T07:09:58;60.90;;;24.40;;
47483;SDS011;54076;50.322;18.650;2023-03-01T07:14:59;63.00;;;24.70;;
47483;SDS011;54076;50.322;18.650;2023-03-01T07:20:00;60.00;;;24.40;;
47483;SDS011;54076;50.322;18.650;2023-03-01T07:25:01;67.20;;;26.60;;
47483;SDS011;54076;50.322;18.650;2023-03-01T07:30:03;67.50;;;27.60;;
47483;SDS011;54076;50.322;18.650;2023-03-01T07:35:05;72.70;;;27.50;;
47483;SDS011;54076;50.322;18.650;2023-03-01T07:40:07;77.30;;;28.80;;
47483;SDS011;54076;50.322;18.650;2023-03-01T07:45:11;73.50;;;30.20;;
47483;SDS011;54076;50.322;18.650;2023-03-01T07:50:14;82.20;;;30.80;;
47483;SDS011;54076;50.322;18.650;2023-03-01T07:55:16;100.90;;;37.40;;
47483;SDS011;54076;50.322;18.650;2023-03-01T08:00:17;103.00;;;37.10;;
47483;SDS011;54076;50.322;18.650;2023-03-01T08:05:19;99.60;;;37.30;;
47483;SDS011;54076;50.322;18.650;2023-03-01T08:10:22;99.30;;;35.00;;
47483;SDS011;54076;50.322;18.650;2023-03-01T08:15:23;77.80;;;30.10;;
47483;SDS011;54076;50.322;18.650;2023-03-01T08:20:25;74.70;;;28.20;;
47483;SDS011;54076;50.322;18.650;2023-03-01T08:25:26;88.60;;;32.60;;
47483;SDS011;54076;50.322;18.650;2023-03-01T08:30:27;68.60;;;29.40;;
47483;SDS011;54076;50.322;18.650;2023-03-01T08:35:28;81.90;;;29.90;;
47483;SDS011;54076;50.322;18.650;2023-03-01T08:40:29;72.20;;;28.60;;
47483;SDS011;54076;50.322;18.650;2023-03-01T08:45:31;73.60;;;29.30;;
47483;SDS011;54076;50.322;18.650;2023-03-01T08:50:32;83.10;;;30.50;;
47483;SDS011;54076;50.322;18.650;2023-03-01T08:55:33;82.80;;;32.30;;
47483;SDS011;54076;50.322;18.650;2023-03-01T09:00:34;77.00;;;30.30;;
47483;SDS011;54076;50.322;18.650;2023-03-01T09:05:35;73.30;;;28.40;;
47483;SDS011;54076;50.322;18.650;2023-03-01T09:10:38;65.60;;;25.60;;
47483;SDS011;54076;50.322;18.650;2023-03-01T09:15:40;75.60;;;27.10;;
47483;SDS011;54076;50.322;18.650;2023-03-01T09:20:41;78.50;;;29.40;;
47483;SDS011;54076;50.322;18.650;2023-03-01T09:25:42;58.80;;;24.30;;
47483;SDS011;54076;50.322;18.650;2023-03-01T09:30:43;57.80;;;22.20;;
47483;SDS011;54076;50.322;18.650;2023-03-01T09:35:44;56.20;;;22.80;;
47483;SDS011;54076;50.322;18.650;2023-03-01T09:40:47;47.60;;;18.30;;
47483;SDS011;54076;50.322;18.650;2023-03-01T09:45:48;31.10;;;14.00;;
47483;SDS011;54076;50.322;18.650;2023-03-01T09:50:51;28.60;;;12.90;;
47483;SDS011;54076;50.322;18.650;2023-03-01T09:56:11;31.00;;;13.70;;
47483;SDS011;54076;50.322;18.650;2023-03-01T10:06:33;31.80;;;11.80;;
47483;SDS011;54076;50.322;18.650;2023-03-01T10:11:39;29.30;;;14.00;;
47483;SDS011;54076;50.322;18.650;2023-03-01T10:16:54;29.50;;;13.60;;
47483;SDS011;54076;50.322;18.650;2023-03-01T10:22:04;31.20;;;13.70;;
47483;SDS011;54076;50.322;18.650;2023-03-01T10:27:24;34.40;;;13.30;;
47483;SDS011;54076;50.322;18.650;2023-03-01T10:32:26;34.00;;;13.80;;
47483;SDS011;54076;50.322;18.650;2023-03-01T10:37:27;35.80;;;14.30;;
47483;SDS011;54076;50.322;18.650;2023-03-01T10:42:52;32.40;;;14.70;;
47483;SDS011;54076;50.322;18.650;2023-03-01T10:48:19;28.10;;;13.60;;
47483;SDS011;54076;50.322;18.650;2023-03-01T10:53:30;32.00;;;13.80;;
47483;SDS011;54076;50.322;18.650;2023-03-01T10:59:03;26.70;;;12.40;;
47483;SDS011;54076;50.322;18.650;2023-03-01T11:09:19;23.90;;;12.00;;
47483;SDS011;54076;50.322;18.650;2023-03-01T11:14:29;26.90;;;12.10;;
47483;SDS011;54076;50.322;18.650;2023-03-01T11:19:36;27.70;;;12.50;;
47483;SDS011;54076;50.322;18.650;2023-03-01T11:24:45;26.10;;;12.60;;
47483;SDS011;54076;50.322;18.650;2023-03-01T11:35:18;25.80;;;12.60;;
47483;SDS011;54076;50.322;18.650;2023-03-01T11:40:42;27.40;;;12.40;;
47483;SDS011;54076;50.322;18.650;2023-03-01T11:50:56;27.20;;;13.20;;
47483;SDS011;54076;50.322;18.650;2023-03-01T11:56:19;26.50;;;13.20;;
47483;SDS011;54076;50.322;18.650;2023-03-01T12:23:58;26.00;;;12.90;;
47483;SDS011;54076;50.322;18.650;2023-03-01T12:40:29;25.30;;;13.90;;
47483;SDS011;54076;50.322;18.650;2023-03-01T12:51:24;26.30;;;13.50;;
47483;SDS011;54076;50.322;18.650;2023-03-01T12:56:32;27.10;;;13.10;;
47483;SDS011;54076;50.322;18.650;2023-03-01T13:01:55;25.60;;;13.00;;
47483;SDS011;54076;50.322;18.650;2023-03-01T13:07:23;22.40;;;12.10;;
47483;SDS011;54076;50.322;18.650;2023-03-01T13:12:45;23.30;;;12.70;;
47483;SDS011;54076;50.322;18.650;2023-03-01T13:33:46;28.00;;;13.00;;
47483;SDS011;54076;50.322;18.650;2023-03-01T13:38:56;24.40;;;13.20;;
47483;SDS011;54076;50.322;18.650;2023-03-01T13:43:59;25.50;;;13.20;;
47483;SDS011;54076;50.322;18.650;2023-03-01T13:49:00;23.80;;;12.60;;
47483;SDS011;54076;50.322;18.650;2023-03-01T13:54:01;25.70;;;12.80;;
47483;SDS011;54076;50.322;18.650;2023-03-01T13:59:05;26.50;;;13.10;;
47483;SDS011;54076;50.322;18.650;2023-03-01T14:04:27;26.00;;;12.60;;
47483;SDS011;54076;50.322;18.650;2023-03-01T14:09:32;24.90;;;11.90;;
47483;SDS011;54076;50.322;18.650;2023-03-01T14:20:23;22.50;;;11.10;;
47483;SDS011;54076;50.322;18.650;2023-03-01T14:25:32;21.30;;;10.90;;
47483;SDS011;54076;50.322;18.650;2023-03-01T14:30:42;22.80;;;10.70;;
47483;SDS011;54076;50.322;18.650;2023-03-01T14:35:57;21.60;;;11.20;;
47483;SDS011;54076;50.322;18.650;2023-03-01T14:41:06;20.50;;;9.60;;
47483;SDS011;54076;50.322;18.650;2023-03-01T14:46:40;21.90;;;9.90;;
47483;SDS011;54076;50.322;18.650;2023-03-01T14:51:58;22.60;;;9.70;;
47483;SDS011;54076;50.322;18.650;2023-03-01T14:57:02;24.00;;;10.40;;
47483;SDS011;54076;50.322;18.650;2023-03-01T15:02:04;23.50;;;9.50;;
47483;SDS011;54076;50.322;18.650;2023-03-01T15:07:05;24.80;;;11.00;;
47483;SDS011;54076;50.322;18.650;2023-03-01T15:17:37;21.80;;;10.40;;
47483;SDS011;54076;50.322;18.650;2023-03-01T15:22:46;18.90;;;8.90;;
47483;SDS011;54076;50.322;18.650;2023-03-01T15:27:51;21.90;;;10.20;;
47483;SDS011;54076;50.322;18.650;2023-03-01T15:38:33;18.40;;;8.20;;
47483;SDS011;54076;50.322;18.650;2023-03-01T15:43:44;19.10;;;8.90;;
47483;SDS011;54076;50.322;18.650;2023-03-01T15:48:48;21.90;;;8.90;;
47483;SDS011;54076;50.322;18.650;2023-03-01T15:53:59;19.00;;;8.80;;
47483;SDS011;54076;50.322;18.650;2023-03-01T15:59:02;17.70;;;8.90;;
47483;SDS011;54076;50.322;18.650;2023-03-01T16:04:04;21.90;;;8.80;;
47483;SDS011;54076;50.322;18.650;2023-03-01T16:09:05;19.60;;;8.40;;
47483;SDS011;54076;50.322;18.650;2023-03-01T16:14:08;19.70;;;9.00;;
47483;SDS011;54076;50.322;18.650;2023-03-01T16:19:10;22.50;;;10.00;;
47483;SDS011;54076;50.322;18.650;2023-03-01T16:24:13;21.20;;;9.20;;
47483;SDS011;54076;50.322;18.650;2023-03-01T16:29:14;21.30;;;9.40;;
47483;SDS011;54076;50.322;18.650;2023-03-01T16:34:16;24.80;;;10.70;;
47483;SDS011;54076;50.322;18.650;2023-03-01T16:39:18;23.60;;;10.70;;
47483;SDS011;54076;50.322;18.650;2023-03-01T16:44:19;24.50;;;11.00;;
47483;SDS011;54076;50.322;18.650;2023-03-01T16:49:20;28.60;;;12.30;;
47483;SDS011;54076;50.322;18.650;2023-03-01T16:54:21;25.40;;;11.80;;
47483;SDS011;54076;50.322;18.650;2023-03-01T16:59:22;28.00;;;12.20;;
47483;SDS011;54076;50.322;18.650;2023-03-01T17:04:23;27.50;;;12.50;;
47483;SDS011;54076;50.322;18.650;2023-03-01T17:09:25;30.20;;;13.00;;
47483;SDS011;54076;50.322;18.650;2023-03-01T17:14:26;32.70;;;14.10;;
47483;SDS011;54076;50.322;18.650;2023-03-01T17:19:27;30.60;;;12.20;;
47483;SDS011;54076;50.322;18.650;2023-03-01T17:24:33;29.50;;;12.20;;
47483;SDS011;54076;50.322;18.650;2023-03-01T17:29:35;33.00;;;12.40;;
47483;SDS011;54076;50.322;18.650;2023-03-01T17:34:36;30.50;;;13.00;;
47483;SDS011;54076;50.322;18.650;2023-03-01T17:39:37;34.00;;;14.50;;
47483;SDS011;54076;50.322;18.650;2023-03-01T17:44:38;37.80;;;13.90;;
47483;SDS011;54076;50.322;18.650;2023-03-01T17:49:39;36.00;;;14.90;;
47483;SDS011;54076;50.322;18.650;2023-03-01T17:54:40;33.70;;;14.40;;
47483;SDS011;54076;50.322;18.650;2023-03-01T17:59:42;32.20;;;13.50;;
47483;SDS011;54076;50.322;18.650;2023-03-01T18:04:43;28.90;;;13.10;;
47483;SDS011;54076;50.322;18.650;2023-03-01T18:09:44;36.30;;;14.90;;
47483;SDS011;54076;50.322;18.650;2023-03-01T18:14:45;40.40;;;16.40;;
47483;SDS011;54076;50.322;18.650;2023-03-01T18:19:48;49.30;;;20.20;;
47483;SDS011;54076;50.322;18.650;2023-03-01T18:24:49;64.70;;;24.10;;
47483;SDS011;54076;50.322;18.650;2023-03-01T18:29:50;82.50;;;30.90;;
47483;SDS011;54076;50.322;18.650;2023-03-01T18:34:53;72.00;;;27.00;;
47483;SDS011;54076;50.322;18.650;2023-03-01T18:39:54;54.60;;;21.30;;
47483;SDS011;54076;50.322;18.650;2023-03-01T18:44:55;43.30;;;17.90;;
47483;SDS011;54076;50.322;18.650;2023-03-01T18:49:56;38.40;;;16.60;;
47483;SDS011;54076;50.322;18.650;2023-03-01T18:54:57;44.20;;;16.10;;
47483;SDS011;54076;50.322;18.650;2023-03-01T18:59:59;44.80;;;17.90;;
47483;SDS011;54076;50.322;18.650;2023-03-01T19:05:00;45.00;;;18.80;;
47483;SDS011;54076;50.322;18.650;2023-03-01T19:10:01;38.90;;;17.80;;
47483;SDS011;54076;50.322;18.650;2023-03-01T19:15:03;45.10;;;19.60;;
47483;SDS011;54076;50.322;18.650;2023-03-01T19:20:05;47.70;;;19.30;;
47483;SDS011;54076;50.322;18.650;2023-03-01T19:25:07;51.70;;;20.90;;
47483;SDS011;54076;50.322;18.650;2023-03-01T19:30:10;52.80;;;19.90;;
47483;SDS011;54076;50.322;18.650;2023-03-01T19:35:11;57.10;;;21.50;;
47483;SDS011;54076;50.322;18.650;2023-03-01T19:40:12;54.40;;;22.20;;
47483;SDS011;54076;50.322;18.650;2023-03-01T19:45:14;50.90;;;21.30;;
47483;SDS011;54076;50.322;18.650;2023-03-01T19:50:15;60.90;;;23.80;;
47483;SDS011;54076;50.322;18.650;2023-03-01T19:55:17;65.60;;;26.80;;
47483;SDS011;54076;50.322;18.650;2023-03-01T20:00:19;82.20;;;31.70;;
47483;SDS011;54076;50.322;18.650;2023-03-01T20:05:20;111.80;;;39.70;;
47483;SDS011;54076;50.322;18.650;2023-03-01T20:10:21;83.90;;;31.40;;
47483;SDS011;54076;50.322;18.650;2023-03-01T20:15:26;68.80;;;26.90;;
47483;SDS011;54076;50.322;18.650;2023-03-01T20:20:27;73.90;;;28.20;;
47483;SDS011;54076;50.322;18.650;2023-03-01T20:25:28;75.30;;;27.30;;
47483;SDS011;54076;50.322;18.650;2023-03-01T20:30:29;69.00;;;26.90;;
47483;SDS011;54076;50.322;18.650;2023-03-01T20:35:30;64.00;;;23.40;;
47483;SDS011;54076;50.322;18.650;2023-03-01T20:40:36;57.50;;;22.90;;
47483;SDS011;54076;50.322;18.650;2023-03-01T20:45:37;56.90;;;21.60;;
47483;SDS011;54076;50.322;18.650;2023-03-01T20:50:39;55.30;;;21.90;;
47483;SDS011;54076;50.322;18.650;2023-03-01T20:55:41;65.50;;;22.90;;
47483;SDS011;54076;50.322;18.650;2023-03-01T21:00:42;51.80;;;21.80;;
47483;SDS011;54076;50.322;18.650;2023-03-01T21:05:43;55.70;;;21.80;;
47483;SDS011;54076;50.322;18.650;2023-03-01T21:10:49;60.80;;;24.00;;
47483;SDS011;54076;50.322;18.650;2023-03-01T21:16:02;57.80;;;22.90;;
47483;SDS011;54076;50.322;18.650;2023-03-01T21:21:14;60.20;;;23.10;;
47483;SDS011;54076;50.322;18.650;2023-03-01T21:26:23;58.00;;;23.60;;
47483;SDS011;54076;50.322;18.650;2023-03-01T21:31:31;60.10;;;23.90;;
47483;SDS011;54076;50.322;18.650;2023-03-01T21:36:34;61.80;;;22.80;;
47483;SDS011;54076;50.322;18.650;2023-03-01T21:41:36;59.90;;;23.90;;
47483;SDS011;54076;50.322;18.650;2023-03-01T21:46:38;65.70;;;26.00;;
47483;SDS011;54076;50.322;18.650;2023-03-01T21:51:39;64.00;;;24.70;;
47483;SDS011;54076;50.322;18.650;2023-03-01T21:56:41;66.00;;;24.30;;
47483;SDS011;54076;50.322;18.650;2023-03-01T22:01:44;125.10;;;40.70;;
47483;SDS011;54076;50.322;18.650;2023-03-01T22:06:46;128.60;;;40.30;;
47483;SDS011;54076;50.322;18.650;2023-03-01T22:11:49;107.40;;;35.90;;
47483;SDS011;54076;50.322;18.650;2023-03-01T22:16:54;102.50;;;33.60;;
47483;SDS011;54076;50.322;18.650;2023-03-01T22:21:55;93.00;;;33.00;;
47483;SDS011;54076;50.322;18.650;2023-03-01T22:26:56;95.00;;;34.70;;
47483;SDS011;54076;50.322;18.650;2023-03-01T22:31:57;95.10;;;32.10;;
47483;SDS011;54076;50.322;18.650;2023-03-01T22:36:59;78.20;;;27.90;;
47483;SDS011;54076;50.322;18.650;2023-03-01T22:42:00;82.10;;;30.50;;
47483;SDS011;54076;50.322;18.650;2023-03-01T22:47:01;83.70;;;29.30;;
47483;SDS011;54076;50.322;18.650;2023-03-01T22:52:03;72.60;;;26.00;;
47483;SDS011;54076;50.322;18.650;2023-03-01T22:57:05;76.50;;;27.10;;
47483;SDS011;54076;50.322;18.650;2023-03-01T23:02:06;72.10;;;24.60;;
47483;SDS011;54076;50.322;18.650;2023-03-01T23:07:07;64.60;;;24.50;;
47483;SDS011;54076;50.322;18.650;2023-03-01T23:12:08;68.30;;;25.30;;
47483;SDS011;54076;50.322;18.650;2023-03-01T23:17:10;66.00;;;25.50;;
47483;SDS011;54076;50.322;18.650;2023-03-01T23:22:12;72.70;;;26.80;;
47483;SDS011;54076;50.322;18.650;2023-03-01T23:27:14;71.30;;;25.80;;
47483;SDS011;54076;50.322;18.650;2023-03-01T23:32:17;67.30;;;26.30;;
47483;SDS011;54076;50.322;18.650;2023-03-01T23:37:18;70.00;;;25.30;;
47483;SDS011;54076;50.322;18.650;2023-03-01T23:42:20;75.70;;;26.00;;
47483;SDS011;54076;50.322;18.650;2023-03-01T23:47:21;80.60;;;29.40;;
47483;SDS011;54076;50.322;18.650;2023-03-01T23:52:22;117.80;;;38.90;;
47483;SDS011;54076;50.322;18.650;2023-03-01T23:57:23;81.30;;;28.80;;
